createdAt,value
2019-03-27T00:00:33.130Z,18.20
2019-03-27T00:03:09.700Z,18.40
2019-03-27T00:05:44.900Z,15.72
2019-03-27T00:08:17.212Z,17.12
2019-03-27T00:10:56.236Z,19.90
2019-03-27T00:13:33.050Z,19.82
2019-03-27T00:16:02.723Z,22.98
2019-03-27T00:18:41.692Z,22.40
2019-03-27T00:21:20.367Z,21.40
2019-03-27T00:24:02.533Z,21.50
2019-03-27T00:26:45.167Z,25.23
2019-03-27T00:29:32.711Z,28.75
2019-03-27T00:32:15.018Z,25.62
2019-03-27T00:34:44.824Z,26.40
2019-03-27T00:37:32.148Z,21.85
2019-03-27T00:40:48.274Z,23.98
2019-03-27T00:42:48.875Z,23.67
2019-03-27T00:48:39.732Z,24.10
2019-03-27T00:51:19.033Z,22.80
2019-03-27T00:53:58.066Z,23.62
2019-03-27T00:56:39.134Z,27.05
2019-03-27T00:59:34.228Z,27.02
2019-03-27T01:02:19.182Z,25.68
2019-03-27T01:04:52.402Z,26.00
2019-03-27T01:07:33.278Z,30.90
2019-03-27T01:10:04.417Z,32.35
2019-03-27T01:12:59.998Z,33.73
2019-03-27T01:15:42.752Z,32.50
2019-03-27T01:18:27.920Z,29.67
2019-03-27T01:21:07.646Z,26.17
2019-03-27T01:23:44.134Z,32.58
2019-03-27T01:26:25.008Z,29.90
2019-03-27T01:28:56.966Z,27.85
2019-03-27T01:31:40.455Z,25.72
2019-03-27T01:34:11.850Z,25.48
2019-03-27T01:36:56.510Z,30.92
2019-03-27T01:39:42.605Z,24.92
2019-03-27T01:42:14.492Z,26.60
2019-03-27T01:45:04.745Z,20.65
2019-03-27T01:47:44.705Z,25.37
2019-03-27T01:50:27.419Z,27.85
2019-03-27T01:53:15.364Z,25.05
2019-03-27T01:55:49.060Z,22.00
2019-03-27T01:58:21.250Z,24.65
2019-03-27T02:00:55.671Z,26.33
2019-03-27T02:03:31.398Z,29.35
2019-03-27T02:06:10.836Z,26.60
2019-03-27T02:08:44.229Z,22.93
2019-03-27T02:11:22.238Z,27.35
2019-03-27T02:13:58.089Z,26.17
2019-03-27T02:16:36.400Z,25.10
2019-03-27T02:19:23.518Z,26.62
2019-03-27T02:22:14.424Z,29.05
2019-03-27T02:24:58.780Z,25.37
2019-03-27T02:27:30.737Z,33.35
2019-03-27T02:30:23.384Z,31.95
2019-03-27T02:32:58.690Z,29.82
2019-03-27T02:35:45.164Z,27.62
2019-03-27T02:38:20.878Z,25.50
2019-03-27T02:41:08.712Z,26.82
2019-03-27T02:43:45.709Z,28.30
2019-03-27T02:46:24.969Z,26.17
2019-03-27T02:49:05.801Z,32.90
2019-03-27T02:51:39.330Z,31.62
2019-03-27T02:54:21.909Z,30.25
2019-03-27T02:56:54.742Z,33.18
2019-03-27T02:59:36.076Z,29.65
2019-03-27T03:05:27.780Z,37.20
2019-03-27T03:07:47.953Z,30.25
2019-03-27T03:10:13.594Z,31.48
2019-03-27T03:12:52.035Z,32.50
2019-03-27T03:15:40.479Z,32.58
2019-03-27T03:21:13.596Z,34.53
2019-03-27T03:26:58.279Z,35.25
2019-03-27T03:32:30.255Z,37.15
2019-03-27T03:35:05.978Z,36.50
2019-03-27T03:37:41.298Z,38.67
2019-03-27T03:41:03.701Z,43.13
2019-03-27T03:42:56.536Z,32.73
2019-03-27T03:45:32.265Z,36.15
2019-03-27T03:48:11.817Z,36.15
2019-03-27T03:51:23.110Z,37.98
2019-03-27T03:53:42.688Z,39.10
2019-03-27T03:56:16.589Z,39.88
2019-03-27T03:59:00.022Z,41.73
2019-03-27T04:01:45.296Z,39.35
2019-03-27T04:04:26.270Z,42.45
2019-03-27T04:10:03.577Z,38.33
2019-03-27T04:12:45.780Z,43.02
2019-03-27T04:15:11.078Z,39.50
2019-03-27T04:17:44.737Z,41.48
2019-03-27T04:20:20.892Z,44.80
2019-03-27T04:22:53.113Z,40.60
2019-03-27T04:25:23.998Z,46.77
2019-03-27T04:28:13.780Z,47.73
2019-03-27T04:30:42.670Z,44.55
2019-03-27T04:33:23.026Z,40.38
2019-03-27T04:36:08.370Z,39.08
2019-03-27T04:38:44.867Z,44.18
2019-03-27T04:41:37.505Z,45.58
2019-03-27T04:44:15.377Z,41.28
2019-03-27T04:46:55.123Z,47.38
2019-03-27T04:49:32.786Z,46.55
2019-03-27T04:52:04.205Z,47.60
2019-03-27T04:54:42.292Z,48.92
2019-03-27T04:57:13.063Z,47.15
2019-03-27T04:59:52.198Z,52.53
2019-03-27T05:02:22.001Z,47.83
2019-03-27T05:04:56.439Z,47.35
2019-03-27T05:07:33.965Z,51.58
2019-03-27T05:10:11.254Z,54.08
2019-03-27T05:12:45.051Z,44.03
2019-03-27T05:15:24.791Z,44.67
2019-03-27T05:18:09.060Z,48.40
2019-03-27T05:20:44.262Z,46.58
2019-03-27T05:23:25.977Z,51.70
2019-03-27T05:26:09.639Z,52.60
2019-03-27T05:31:44.447Z,46.80
2019-03-27T05:34:26.764Z,55.80
2019-03-27T05:37:02.520Z,52.08
2019-03-27T05:39:34.481Z,56.35
2019-03-27T05:42:06.340Z,47.38
2019-03-27T05:45:14.246Z,46.15
2019-03-27T05:47:20.606Z,50.40
2019-03-27T05:53:51.963Z,46.90
2019-03-27T05:56:27.236Z,44.45
2019-03-27T05:59:15.953Z,45.52
2019-03-27T06:01:48.329Z,49.60
2019-03-27T06:04:34.212Z,43.73
2019-03-27T06:07:19.592Z,48.02
2019-03-27T06:10:03.273Z,46.30
2019-03-27T06:12:54.128Z,44.60
2019-03-27T06:15:28.862Z,45.33
2019-03-27T06:20:40.670Z,43.90
2019-03-27T06:23:19.088Z,39.35
2019-03-27T06:25:49.570Z,38.75
2019-03-27T06:31:14.068Z,41.90
2019-03-27T06:33:59.291Z,40.50
2019-03-27T06:36:21.117Z,39.05
2019-03-27T06:39:02.195Z,36.95
2019-03-27T06:41:48.467Z,42.03
2019-03-27T06:47:05.652Z,44.25
2019-03-27T06:49:45.678Z,48.77
2019-03-27T06:52:20.716Z,44.13
2019-03-27T06:54:52.650Z,47.88
2019-03-27T06:57:18.599Z,43.95
2019-03-27T06:59:47.208Z,48.65
2019-03-27T07:02:15.795Z,42.38
2019-03-27T07:04:44.124Z,41.75
2019-03-27T07:07:12.766Z,42.23
2019-03-27T07:09:42.694Z,39.18
2019-03-27T07:12:20.877Z,43.98
2019-03-27T07:14:41.400Z,41.35
2019-03-27T07:17:10.000Z,47.45
2019-03-27T07:19:38.767Z,40.67
2019-03-27T07:22:07.098Z,39.92
2019-03-27T07:24:35.769Z,41.77
2019-03-27T07:27:04.608Z,47.25
2019-03-27T07:29:32.963Z,47.08
2019-03-27T07:32:01.281Z,44.70
2019-03-27T07:34:29.623Z,44.08
2019-03-27T07:36:58.182Z,39.35
2019-03-27T07:39:26.521Z,45.98
2019-03-27T07:41:54.874Z,40.85
2019-03-27T07:44:23.282Z,47.03
2019-03-27T07:46:51.600Z,46.55
2019-03-27T07:49:19.949Z,40.83
2019-03-27T07:51:48.292Z,42.93
2019-03-27T07:54:18.149Z,42.35
2019-03-27T07:56:46.622Z,42.55
2019-03-27T07:59:15.240Z,44.60
2019-03-27T08:01:43.691Z,45.73
2019-03-27T08:04:14.454Z,43.73
2019-03-27T08:06:42.614Z,40.73
2019-03-27T08:09:11.211Z,37.38
2019-03-27T08:11:39.586Z,41.40
2019-03-27T08:14:08.418Z,44.95
2019-03-27T08:16:36.948Z,47.62
2019-03-27T08:19:07.757Z,41.13
2019-03-27T08:21:35.556Z,39.90
2019-03-27T08:24:04.024Z,41.88
2019-03-27T08:26:32.654Z,44.90
2019-03-27T08:29:00.977Z,42.05
2019-03-27T08:31:29.302Z,42.30
2019-03-27T08:33:57.641Z,40.63
2019-03-27T08:36:26.225Z,40.78
2019-03-27T08:38:54.553Z,44.38
2019-03-27T08:41:22.961Z,42.55
2019-03-27T08:43:51.734Z,45.03
2019-03-27T08:46:20.520Z,44.50
2019-03-27T08:48:49.105Z,43.65
2019-03-27T08:51:17.497Z,46.15
2019-03-27T08:53:45.845Z,48.00
2019-03-27T08:56:14.336Z,47.80
2019-03-27T08:58:42.689Z,46.53
2019-03-27T09:01:11.010Z,49.58
2019-03-27T09:03:39.682Z,48.30
2019-03-27T09:06:08.006Z,46.18
2019-03-27T09:08:36.604Z,51.35
2019-03-27T09:11:04.981Z,48.65
2019-03-27T09:13:33.353Z,49.35
2019-03-27T09:16:01.694Z,46.83
2019-03-27T09:18:30.565Z,45.98
2019-03-27T09:20:59.061Z,45.10
2019-03-27T09:23:27.391Z,52.08
2019-03-27T09:25:55.788Z,48.35
2019-03-27T09:28:25.759Z,49.65
2019-03-27T09:30:54.245Z,41.28
2019-03-27T09:33:22.657Z,42.95
2019-03-27T09:35:51.166Z,41.58
2019-03-27T09:38:19.724Z,44.75
2019-03-27T09:40:48.112Z,43.80
2019-03-27T09:43:16.538Z,39.45
2019-03-27T09:45:44.865Z,40.63
2019-03-27T09:48:13.460Z,40.85
2019-03-27T09:50:42.079Z,40.10
2019-03-27T09:53:10.406Z,38.30
2019-03-27T09:55:39.482Z,40.25
2019-03-27T09:58:07.986Z,38.30
2019-03-27T10:00:48.082Z,35.10
2019-03-27T10:03:16.605Z,36.08
2019-03-27T10:05:44.998Z,39.45
2019-03-27T10:08:13.393Z,24.67
2019-03-27T10:10:41.906Z,29.77
2019-03-27T10:13:10.291Z,27.85
2019-03-27T10:15:39.084Z,30.30
2019-03-27T10:18:07.686Z,29.15
2019-03-27T10:20:36.026Z,29.65
2019-03-27T10:23:04.580Z,30.77
2019-03-27T10:25:33.647Z,26.45
2019-03-27T10:28:02.672Z,30.32
2019-03-27T10:30:33.419Z,26.57
2019-03-27T10:33:01.488Z,23.70
2019-03-27T10:35:29.820Z,26.10
2019-03-27T10:37:58.315Z,24.55
2019-03-27T10:40:26.809Z,27.05
2019-03-27T10:42:55.467Z,26.80
2019-03-27T10:45:24.046Z,22.40
2019-03-27T10:47:52.644Z,23.30
2019-03-27T10:50:21.403Z,29.87
2019-03-27T10:52:50.018Z,25.97
2019-03-27T10:55:18.343Z,31.68
2019-03-27T10:57:46.689Z,28.50
2019-03-27T11:00:15.007Z,24.95
2019-03-27T11:02:43.418Z,27.13
2019-03-27T11:05:12.111Z,24.63
2019-03-27T11:07:40.809Z,23.77
2019-03-27T11:10:09.491Z,24.37
2019-03-27T11:12:38.079Z,29.65
2019-03-27T11:15:08.116Z,24.95
2019-03-27T11:17:36.442Z,27.15
2019-03-27T11:20:05.765Z,27.60
2019-03-27T11:22:34.252Z,25.23
2019-03-27T11:25:02.756Z,25.32
2019-03-27T11:27:31.409Z,24.63
2019-03-27T11:29:59.762Z,27.95
2019-03-27T11:32:28.225Z,28.73
2019-03-27T11:34:57.008Z,26.45
2019-03-27T11:37:25.348Z,24.57
2019-03-27T11:39:53.767Z,24.00
2019-03-27T11:42:22.421Z,27.30
2019-03-27T11:44:51.015Z,30.12
2019-03-27T11:47:19.710Z,24.12
2019-03-27T11:49:48.032Z,28.60
2019-03-27T11:52:16.448Z,24.90
2019-03-27T11:54:44.794Z,25.43
2019-03-27T11:57:13.297Z,24.72
2019-03-27T11:59:53.427Z,23.38
2019-03-27T12:02:11.960Z,30.35
2019-03-27T12:04:40.271Z,26.55
2019-03-27T12:07:08.612Z,26.35
2019-03-27T12:09:37.101Z,29.57
2019-03-27T12:12:05.606Z,24.92
2019-03-27T12:14:34.186Z,27.17
2019-03-27T12:17:02.957Z,26.60
2019-03-27T12:19:31.278Z,22.17
2019-03-27T12:21:59.786Z,18.45
2019-03-27T12:24:28.858Z,25.40
2019-03-27T12:26:57.460Z,25.20
2019-03-27T12:29:25.772Z,22.15
2019-03-27T12:31:54.284Z,19.75
2019-03-27T12:34:22.610Z,18.82
2019-03-27T12:36:50.965Z,21.70
2019-03-27T12:39:19.289Z,22.27
2019-03-27T12:41:47.754Z,26.85
2019-03-27T12:44:16.245Z,21.48
2019-03-27T12:46:44.831Z,22.15
2019-03-27T12:49:13.610Z,17.45
2019-03-27T12:51:42.108Z,19.57
2019-03-27T12:54:11.031Z,20.08
2019-03-27T12:56:39.416Z,21.27
2019-03-27T12:59:07.746Z,20.70
2019-03-27T13:01:36.477Z,21.20
2019-03-27T13:04:05.051Z,19.75
2019-03-27T13:06:33.555Z,20.52
2019-03-27T13:09:05.046Z,21.05
2019-03-27T13:11:36.566Z,19.15
2019-03-27T13:14:03.792Z,18.40
2019-03-27T13:16:32.119Z,19.23
2019-03-27T13:19:00.849Z,21.23
2019-03-27T13:21:29.245Z,25.92
2019-03-27T13:23:57.994Z,19.45
2019-03-27T13:26:26.318Z,20.10
2019-03-27T13:28:54.974Z,19.90
2019-03-27T13:31:23.579Z,17.82
2019-03-27T13:33:52.074Z,19.27
2019-03-27T13:36:20.423Z,17.10
2019-03-27T13:38:49.100Z,16.85
2019-03-27T13:41:17.721Z,16.42
2019-03-27T13:43:46.845Z,15.95
2019-03-27T13:46:15.203Z,15.23
2019-03-27T13:48:44.168Z,15.05
2019-03-27T13:51:12.493Z,19.42
2019-03-27T13:53:40.836Z,14.95
2019-03-27T13:56:09.346Z,16.27
2019-03-27T13:58:37.739Z,14.38
2019-03-27T14:01:08.918Z,19.87
2019-03-27T14:03:36.627Z,20.60
2019-03-27T14:06:05.129Z,19.82
2019-03-27T14:08:33.714Z,15.30
2019-03-27T14:11:02.422Z,21.35
2019-03-27T14:13:30.798Z,21.07
2019-03-27T14:15:59.320Z,18.00
2019-03-27T14:18:27.711Z,16.60
2019-03-27T14:20:56.546Z,17.85
2019-03-27T14:23:25.150Z,16.27
2019-03-27T14:25:53.855Z,23.02
2019-03-27T14:28:22.425Z,27.58
2019-03-27T14:30:54.055Z,17.95
2019-03-27T14:33:22.356Z,16.35
2019-03-27T14:35:50.673Z,19.05
2019-03-27T14:38:18.996Z,13.78
2019-03-27T14:40:47.582Z,14.38
2019-03-27T14:43:15.909Z,16.60
2019-03-27T14:45:44.238Z,12.53
2019-03-27T14:48:13.105Z,15.23
2019-03-27T14:50:41.410Z,20.37
2019-03-27T14:53:09.769Z,17.17
2019-03-27T14:55:38.074Z,17.65
2019-03-27T14:58:06.408Z,15.53
2019-03-27T15:00:34.735Z,14.25
2019-03-27T15:03:03.155Z,15.98
2019-03-27T15:05:31.724Z,15.65
2019-03-27T15:08:00.026Z,12.63
2019-03-27T15:10:28.634Z,12.95
2019-03-27T15:12:56.957Z,14.95
2019-03-27T15:15:25.551Z,24.10
2019-03-27T15:17:53.902Z,19.87
2019-03-27T15:20:22.410Z,15.60
2019-03-27T15:22:50.735Z,17.37
2019-03-27T15:25:19.157Z,14.03
2019-03-27T15:27:47.482Z,17.07
2019-03-27T15:30:15.886Z,12.18
2019-03-27T15:32:44.660Z,17.30
2019-03-27T15:35:12.980Z,16.35
2019-03-27T15:37:41.483Z,12.73
2019-03-27T15:40:10.581Z,13.58
2019-03-27T15:42:39.795Z,13.32
2019-03-27T15:45:09.136Z,15.10
2019-03-27T15:47:37.464Z,12.28
2019-03-27T15:50:05.904Z,13.10
2019-03-27T15:52:36.653Z,17.12
2019-03-27T15:55:04.813Z,16.27
2019-03-27T15:57:34.225Z,14.65
2019-03-27T16:00:03.090Z,12.78
2019-03-27T16:02:31.427Z,12.95
2019-03-27T16:05:00.471Z,17.12
2019-03-27T16:07:31.327Z,14.93
2019-03-27T16:09:59.424Z,12.00
2019-03-27T16:12:27.794Z,13.25
2019-03-27T16:14:56.174Z,12.65
2019-03-27T16:17:24.606Z,14.10
2019-03-27T16:19:53.182Z,14.80
2019-03-27T16:22:21.526Z,12.82
2019-03-27T16:24:50.143Z,16.15
2019-03-27T16:27:18.509Z,12.53
2019-03-27T16:29:46.872Z,16.65
2019-03-27T16:32:15.215Z,14.85
2019-03-27T16:34:43.892Z,12.53
2019-03-27T16:37:12.374Z,11.40
2019-03-27T16:39:40.748Z,13.68
2019-03-27T16:42:09.262Z,15.08
2019-03-27T16:44:37.617Z,11.57
2019-03-27T16:47:05.952Z,13.28
2019-03-27T16:49:34.295Z,10.80
2019-03-27T16:52:03.153Z,13.85
2019-03-27T16:54:31.958Z,15.03
2019-03-27T16:57:00.731Z,10.50
2019-03-27T16:59:29.371Z,33.92
2019-03-27T17:01:57.769Z,14.23
2019-03-27T17:04:26.389Z,10.90
2019-03-27T17:06:55.258Z,11.20
2019-03-27T17:09:23.886Z,11.40
2019-03-27T17:11:52.372Z,11.22
2019-03-27T17:14:21.352Z,10.48
2019-03-27T17:16:49.773Z,12.05
2019-03-27T17:19:18.540Z,11.65
2019-03-27T17:21:47.313Z,9.13
2019-03-27T17:24:15.648Z,15.85
2019-03-27T17:26:44.543Z,13.90
2019-03-27T17:29:13.165Z,16.37
2019-03-27T17:31:41.764Z,15.10
2019-03-27T17:34:10.092Z,50.67
2019-03-27T17:36:38.435Z,33.63
2019-03-27T17:39:08.063Z,19.67
2019-03-27T17:41:36.859Z,15.83
2019-03-27T17:44:05.788Z,14.60
2019-03-27T17:46:34.415Z,16.48
2019-03-27T17:49:02.809Z,21.00
2019-03-27T17:51:31.447Z,17.90
2019-03-27T17:54:01.958Z,41.42
2019-03-27T17:56:30.715Z,28.00
2019-03-27T17:58:59.606Z,15.60
2019-03-27T18:01:28.002Z,18.10
2019-03-27T18:03:56.378Z,16.10
2019-03-27T18:06:25.053Z,19.87
2019-03-27T18:08:53.384Z,15.30
2019-03-27T18:11:21.812Z,16.62
2019-03-27T18:13:50.134Z,18.20
2019-03-27T18:16:18.554Z,16.32
2019-03-27T18:18:47.074Z,17.80
2019-03-27T18:21:15.487Z,48.38
2019-03-27T18:23:46.169Z,25.75
2019-03-27T18:26:13.895Z,16.25
2019-03-27T18:28:42.217Z,15.58
2019-03-27T18:31:10.552Z,17.00
2019-03-27T18:33:38.901Z,19.75
2019-03-27T18:36:07.241Z,19.52
2019-03-27T18:38:36.176Z,17.90
2019-03-27T18:41:04.550Z,20.20
2019-03-27T18:43:33.237Z,20.95
2019-03-27T18:46:01.583Z,20.20
2019-03-27T18:48:30.080Z,22.75
2019-03-27T18:50:58.412Z,17.48
2019-03-27T18:53:26.795Z,18.92
2019-03-27T18:55:55.135Z,21.52
2019-03-27T18:58:23.603Z,21.90
2019-03-27T19:00:52.008Z,23.27
2019-03-27T19:03:20.698Z,22.65
2019-03-27T19:05:49.442Z,18.50
2019-03-27T19:08:17.839Z,23.67
2019-03-27T19:10:46.699Z,24.18
2019-03-27T19:13:15.285Z,30.05
2019-03-27T19:15:44.146Z,24.52
2019-03-27T19:18:12.846Z,27.55
2019-03-27T19:20:41.242Z,20.35
2019-03-27T19:23:09.579Z,23.45
2019-03-27T19:25:38.109Z,21.42
2019-03-27T19:28:06.733Z,64.30
2019-03-27T19:30:35.696Z,44.55
2019-03-27T19:33:04.447Z,29.40
2019-03-27T19:35:32.946Z,27.90
2019-03-27T19:38:01.378Z,23.25
2019-03-27T19:40:30.206Z,20.80
2019-03-27T19:42:58.833Z,23.05
2019-03-27T19:45:27.845Z,21.35
2019-03-27T19:47:56.153Z,26.12
2019-03-27T19:50:24.789Z,30.12
2019-03-27T19:52:53.167Z,27.58
2019-03-27T19:55:21.523Z,29.72
2019-03-27T19:57:50.133Z,119.20
2019-03-27T20:00:19.750Z,62.85
2019-03-27T20:02:48.421Z,29.12
2019-03-27T20:05:16.793Z,25.60
2019-03-27T20:07:45.195Z,28.87
2019-03-27T20:10:13.757Z,22.85
2019-03-27T20:12:42.431Z,21.70
2019-03-27T20:15:12.934Z,26.42
2019-03-27T20:17:41.042Z,26.10
2019-03-27T20:20:09.733Z,24.55
2019-03-27T20:22:38.508Z,28.35
2019-03-27T20:25:10.095Z,27.45
2019-03-27T20:27:39.057Z,27.93
2019-03-27T20:30:12.699Z,24.55
2019-03-27T20:32:41.542Z,86.25
2019-03-27T20:35:10.012Z,61.42
2019-03-27T20:37:38.489Z,30.30
2019-03-27T20:40:06.835Z,24.52
2019-03-27T20:42:35.358Z,22.30
2019-03-27T20:45:06.359Z,27.27
2019-03-27T20:47:35.202Z,24.75
2019-03-27T20:50:04.889Z,25.65
2019-03-27T20:52:33.277Z,28.00
2019-03-27T20:55:01.739Z,56.08
2019-03-27T20:57:30.248Z,32.25
2019-03-27T20:59:58.803Z,29.60
2019-03-27T21:02:27.397Z,30.45
2019-03-27T21:04:55.909Z,37.50
2019-03-27T21:07:24.746Z,67.70
2019-03-27T21:09:53.534Z,64.10
2019-03-27T21:12:21.969Z,32.03
2019-03-27T21:14:50.294Z,32.67
2019-03-27T21:17:18.914Z,33.10
2019-03-27T21:19:47.321Z,27.77
2019-03-27T21:22:15.841Z,27.70
2019-03-27T21:24:44.370Z,26.30
2019-03-27T21:27:12.739Z,25.70
2019-03-27T21:29:41.166Z,27.48
2019-03-27T21:32:09.955Z,24.98
2019-03-27T21:34:38.290Z,26.02
2019-03-27T21:37:06.613Z,24.80
2019-03-27T21:39:35.018Z,24.90
2019-03-27T21:42:03.618Z,105.80
2019-03-27T21:44:32.389Z,73.02
2019-03-27T21:47:00.716Z,38.90
2019-03-27T21:49:29.060Z,26.82
2019-03-27T21:51:57.695Z,29.48
2019-03-27T21:54:26.678Z,26.33
2019-03-27T21:56:55.057Z,27.45
2019-03-27T21:59:23.833Z,27.42
2019-03-27T22:01:52.333Z,26.05
2019-03-27T22:04:21.038Z,26.55
2019-03-27T22:06:49.690Z,26.48
2019-03-27T22:09:18.372Z,28.75
2019-03-27T22:11:46.713Z,29.50
2019-03-27T22:14:15.075Z,21.20
2019-03-27T22:16:43.720Z,24.90
2019-03-27T22:19:12.429Z,26.48
2019-03-27T22:21:41.008Z,26.73
2019-03-27T22:24:09.590Z,25.48
2019-03-27T22:26:38.180Z,24.00
2019-03-27T22:29:06.937Z,26.48
2019-03-27T22:31:35.438Z,25.12
2019-03-27T22:34:04.020Z,28.30
2019-03-27T22:36:32.376Z,25.55
2019-03-27T22:39:00.689Z,23.35
2019-03-27T22:41:29.037Z,26.48
2019-03-27T22:43:57.363Z,24.67
2019-03-27T22:46:25.975Z,24.72
2019-03-27T22:48:54.304Z,24.07
2019-03-27T22:51:22.674Z,26.77
2019-03-27T22:53:51.585Z,28.85
2019-03-27T22:56:20.081Z,28.75
2019-03-27T22:58:48.495Z,27.45
2019-03-27T23:01:17.131Z,27.02
2019-03-27T23:03:45.747Z,30.17
2019-03-27T23:06:14.078Z,26.68
2019-03-27T23:08:42.544Z,25.10
2019-03-27T23:11:11.185Z,32.45
2019-03-27T23:13:39.689Z,26.60
2019-03-27T23:16:08.064Z,26.97
2019-03-27T23:18:36.682Z,28.02
2019-03-27T23:21:05.167Z,27.45
2019-03-27T23:23:33.508Z,34.45
2019-03-27T23:26:03.374Z,29.48
2019-03-27T23:28:32.105Z,28.15
2019-03-27T23:31:00.757Z,27.93
2019-03-27T23:33:29.105Z,32.48
2019-03-27T23:35:57.580Z,32.55
2019-03-27T23:38:26.095Z,26.48
2019-03-27T23:40:54.436Z,27.80
2019-03-27T23:43:22.814Z,31.25
2019-03-27T23:45:51.326Z,30.60
2019-03-27T23:48:20.091Z,32.78
2019-03-27T23:50:48.485Z,31.48
2019-03-27T23:53:17.141Z,27.67
2019-03-27T23:55:45.662Z,31.17
2019-03-27T23:58:14.642Z,26.87
